Elba, Ohio
Current Conditions -  °F | °C
As of 7:19 AM on Monday 26 Jan 2015 (Local Time) from KPKB Reporting Station
Light Snow Light Snow  
Wind Chill: 25°   Ceiling: 500
Heat Index: 32°   Visibility: 2mi
Dew Point: 30°   Wind: 8mph
Humidity: 92%   Direction: 340°NNW
Pressure: 29.7"   Gusts: NA
Location:  39.61°N, 81.4416°W
Report Text: KPKB 261219Z 34007KT 2SM -SN BR OVC005 00/M01 A2970 RMK AO2 RAE1155UPB1155E02SNB02 P0001 T00001011
Loading
Personal Weather Stations






























Interactive Weather Map New forecast layout! Learn more

10-Day Weather Forecast

Advertisements
Track Severe Weather on mobile